Time;durP1;ratioP1;P1;durP2;ratioP2;P2;SDS_P1;SDS_P2;PMS_P1;PMS_P2;Temp;Humidity;BMP_temperature;BMP_pressure;BME280_temperature;BME280_humidity;BME280_pressure;Samples;Min_cycle;Max_cycle;Signal;HPM_P1;HPM_P2
2022/04/10 00:02:22;;;;;;;6.23;3.60;;;;;;;;;;5116696;27;20471;-72
2022/04/10 00:04:49;;;;;;;2.43;2.10;;;;;;;;;;5126707;27;20455;-72
2022/04/10 00:07:16;;;;;;;2.27;2.07;;;;;;;;;;5123788;27;20541;-72
2022/04/10 00:09:43;;;;;;;4.87;2.57;;;;;;;;;;5127373;27;20530;-72
2022/04/10 00:12:10;;;;;;;15.63;3.70;;;;;;;;;;5131063;27;20455;-73
2022/04/10 00:14:39;;;;;;;4.63;2.80;;;;;;;;;;5130707;27;20447;-73
2022/04/10 00:17:06;;;;;;;3.70;3.00;;;;;;;;;;5124561;27;20533;-72
2022/04/10 00:19:33;;;;;;;3.47;2.30;;;;;;;;;;5132487;27;20451;-72
2022/04/10 00:22:01;;;;;;;4.57;2.73;;;;;;;;;;5122842;27;20460;-72
2022/04/10 00:24:28;;;;;;;2.53;2.33;;;;;;;;;;5125990;27;20460;-72
2022/04/10 00:26:55;;;;;;;7.50;3.23;;;;;;;;;;5131858;27;20458;-72
2022/04/10 00:29:22;;;;;;;5.23;2.80;;;;;;;;;;5127156;27;20475;-73
2022/04/10 00:31:51;;;;;;;3.63;2.37;;;;;;;;;;5130044;27;20449;-73
2022/04/10 00:34:18;;;;;;;5.70;2.63;;;;;;;;;;5129890;27;20459;-73
2022/04/10 00:36:45;;;;;;;15.40;3.57;;;;;;;;;;5125709;27;20562;-72
2022/04/10 00:39:12;;;;;;;3.70;2.07;;;;;;;;;;5115452;27;20550;-73
2022/04/10 00:41:40;;;;;;;4.10;2.40;;;;;;;;;;5130584;27;20522;-72
2022/04/10 00:44:08;;;;;;;4.43;2.63;;;;;;;;;;5132457;27;20448;-73
2022/04/10 00:46:35;;;;;;;3.50;2.00;;;;;;;;;;5131637;27;20492;-72
2022/04/10 00:49:04;;;;;;;3.70;2.10;;;;;;;;;;5126848;27;20535;-73
2022/04/10 00:51:41;;;;;;;6.30;2.37;;;;;;;;;;5127135;27;20453;-73
2022/04/10 00:54:09;;;;;;;3.80;2.67;;;;;;;;;;5119116;27;20473;-73
2022/04/10 00:56:37;;;;;;;3.30;2.40;;;;;;;;;;5123618;27;20483;-71
2022/04/10 00:59:04;;;;;;;3.27;2.43;;;;;;;;;;5130271;27;20503;-70
2022/04/10 01:01:31;;;;;;;2.73;2.43;;;;;;;;;;5116323;27;20526;-72
2022/04/10 01:03:58;;;;;;;2.60;2.07;;;;;;;;;;5126702;27;20439;-72
2022/04/10 01:06:27;;;;;;;5.13;2.67;;;;;;;;;;5125390;27;20452;-72
2022/04/10 01:08:55;;;;;;;3.33;2.43;;;;;;;;;;5127023;27;20488;-73
2022/04/10 01:11:22;;;;;;;3.50;3.20;;;;;;;;;;5122474;27;21031;-73
2022/04/10 01:13:49;;;;;;;3.33;2.53;;;;;;;;;;5127535;27;20446;-74
2022/04/10 01:16:16;;;;;;;9.63;3.00;;;;;;;;;;5130528;27;20502;-72
2022/04/10 01:18:43;;;;;;;7.33;3.33;;;;;;;;;;5121258;27;20463;-74
2022/04/10 01:21:13;;;;;;;5.03;2.60;;;;;;;;;;5125572;27;20958;-72
2022/04/10 01:23:42;;;;;;;3.60;2.40;;;;;;;;;;5130618;27;20526;-72
2022/04/10 01:26:09;;;;;;;3.43;2.33;;;;;;;;;;5130749;27;20862;-72
2022/04/10 01:28:36;;;;;;;2.70;2.17;;;;;;;;;;5129967;27;20934;-72
2022/04/10 01:31:04;;;;;;;3.10;2.27;;;;;;;;;;5130846;27;20564;-71
2022/04/10 01:33:31;;;;;;;5.83;3.30;;;;;;;;;;5128202;27;20450;-72
2022/04/10 01:35:58;;;;;;;14.73;4.40;;;;;;;;;;5123931;27;20471;-73
2022/04/10 01:38:25;;;;;;;2.37;2.07;;;;;;;;;;5118127;27;20460;-71
2022/04/10 01:40:54;;;;;;;2.53;2.07;;;;;;;;;;5119690;27;20474;-71
2022/04/10 01:43:21;;;;;;;4.90;2.37;;;;;;;;;;5115790;28;20454;-72
2022/04/10 01:45:48;;;;;;;3.27;2.37;;;;;;;;;;5129832;27;20450;-72
2022/04/10 01:48:15;;;;;;;2.83;2.37;;;;;;;;;;5126780;27;20442;-72
2022/04/10 01:50:43;;;;;;;2.77;1.77;;;;;;;;;;5127052;28;20530;-72
2022/04/10 01:53:10;;;;;;;3.97;2.83;;;;;;;;;;5124100;28;20471;-72
2022/04/10 01:55:37;;;;;;;2.60;2.13;;;;;;;;;;5123581;28;20567;-72
2022/04/10 01:58:05;;;;;;;4.20;2.63;;;;;;;;;;5126345;28;20998;-71
2022/04/10 02:00:33;;;;;;;4.30;2.67;;;;;;;;;;5110783;27;20473;-73
2022/04/10 02:03:00;;;;;;;5.40;2.47;;;;;;;;;;5120969;28;20511;-72
2022/04/10 02:05:27;;;;;;;2.97;2.50;;;;;;;;;;5114970;27;20448;-73
2022/04/10 02:07:54;;;;;;;4.20;3.07;;;;;;;;;;5123475;27;20870;-73
2022/04/10 02:10:21;;;;;;;2.23;1.60;;;;;;;;;;5129381;27;20443;-73
2022/04/10 02:12:48;;;;;;;5.70;2.53;;;;;;;;;;5131095;27;20865;-73
2022/04/10 02:15:17;;;;;;;6.43;3.23;;;;;;;;;;5130678;27;20809;-72
2022/04/10 02:17:44;;;;;;;2.50;2.30;;;;;;;;;;5131565;27;20569;-73
2022/04/10 02:20:12;;;;;;;4.30;2.10;;;;;;;;;;5126668;27;20456;-73
2022/04/10 02:22:39;;;;;;;2.93;2.13;;;;;;;;;;5125312;27;20449;-73
2022/04/10 02:25:06;;;;;;;3.57;2.33;;;;;;;;;;5127813;27;20464;-72
2022/04/10 02:27:34;;;;;;;2.43;2.10;;;;;;;;;;5117820;28;20437;-71
2022/04/10 02:30:01;;;;;;;4.03;2.70;;;;;;;;;;5126177;28;20935;-73
2022/04/10 02:32:30;;;;;;;2.40;2.20;;;;;;;;;;5128189;27;20470;-73
2022/04/10 02:34:57;;;;;;;3.67;2.10;;;;;;;;;;5131224;27;20439;-73
2022/04/10 02:37:25;;;;;;;5.10;2.40;;;;;;;;;;5120760;27;20487;-73
2022/04/10 02:39:52;;;;;;;3.80;2.40;;;;;;;;;;5126965;28;20474;-73
2022/04/10 02:42:19;;;;;;;6.50;1.90;;;;;;;;;;5123548;27;20452;-72
2022/04/10 02:44:46;;;;;;;2.43;2.23;;;;;;;;;;5129241;27;20447;-73
2022/04/10 02:47:13;;;;;;;5.17;2.37;;;;;;;;;;5129551;27;20798;-73
2022/04/10 02:49:43;;;;;;;2.87;2.30;;;;;;;;;;5127143;27;20442;-73
2022/04/10 02:52:10;;;;;;;2.43;2.20;;;;;;;;;;5133905;27;20439;-72
2022/04/10 02:54:37;;;;;;;3.77;2.60;;;;;;;;;;5133774;27;20482;-72
2022/04/10 02:57:04;;;;;;;2.40;2.20;;;;;;;;;;5128002;27;20583;-71
2022/04/10 02:59:31;;;;;;;3.30;2.50;;;;;;;;;;5123214;27;20762;-73
2022/04/10 03:01:59;;;;;;;2.30;2.10;;;;;;;;;;5119111;27;20451;-73
2022/04/10 03:04:26;;;;;;;3.43;1.97;;;;;;;;;;5127832;27;20446;-72
2022/04/10 03:06:54;;;;;;;5.40;3.00;;;;;;;;;;5118970;27;20457;-72
2022/04/10 03:09:22;;;;;;;5.23;2.67;;;;;;;;;;5132163;27;20478;-73
2022/04/10 03:11:49;;;;;;;4.93;2.97;;;;;;;;;;5126614;27;20451;-72
2022/04/10 03:14:17;;;;;;;2.73;2.30;;;;;;;;;;5128834;27;20439;-72
2022/04/10 03:16:44;;;;;;;8.13;4.17;;;;;;;;;;5120143;27;21005;-73
2022/04/10 03:19:11;;;;;;;6.90;2.40;;;;;;;;;;5105913;27;20449;-72
2022/04/10 03:21:38;;;;;;;3.93;2.70;;;;;;;;;;5123702;27;20479;-72
2022/04/10 03:24:08;;;;;;;4.40;2.40;;;;;;;;;;5133127;27;20439;-72
2022/04/10 03:26:35;;;;;;;4.50;2.40;;;;;;;;;;5132683;27;20818;-72
2022/04/10 03:29:02;;;;;;;2.73;2.33;;;;;;;;;;5128668;27;20523;-72
2022/04/10 03:31:29;;;;;;;6.73;2.73;;;;;;;;;;5129116;27;21035;-73
2022/04/10 03:33:56;;;;;;;3.70;2.20;;;;;;;;;;5129698;27;20866;-73
2022/04/10 03:36:23;;;;;;;3.57;2.43;;;;;;;;;;5124456;27;21152;-72
2022/04/10 03:38:51;;;;;;;3.10;2.80;;;;;;;;;;5111696;27;20510;-72
2022/04/10 03:41:20;;;;;;;6.10;3.13;;;;;;;;;;5127404;27;20473;-73
2022/04/10 03:43:47;;;;;;;5.37;2.67;;;;;;;;;;5132525;27;20443;-72
2022/04/10 03:46:14;;;;;;;5.37;3.30;;;;;;;;;;5123191;27;20543;-72
2022/04/10 03:48:42;;;;;;;4.90;2.90;;;;;;;;;;5132076;27;20488;-72
2022/04/10 03:51:09;;;;;;;4.10;2.60;;;;;;;;;;5129724;27;20939;-72
2022/04/10 03:53:36;;;;;;;4.67;3.40;;;;;;;;;;5122112;27;20462;-72
2022/04/10 03:56:03;;;;;;;3.17;2.87;;;;;;;;;;5126948;27;20538;-72
2022/04/10 03:58:32;;;;;;;3.27;3.00;;;;;;;;;;5133459;27;20454;-72
2022/04/10 04:00:59;;;;;;;4.80;3.47;;;;;;;;;;5127658;27;21013;-72
2022/04/10 04:03:26;;;;;;;4.23;3.30;;;;;;;;;;5131846;27;20533;-72
2022/04/10 04:05:55;;;;;;;3.83;2.87;;;;;;;;;;5130811;27;20550;-72
2022/04/10 04:08:22;;;;;;;5.20;3.10;;;;;;;;;;5127902;27;20455;-72
2022/04/10 04:10:49;;;;;;;5.03;3.87;;;;;;;;;;5132383;27;20447;-71
2022/04/10 04:13:17;;;;;;;3.33;3.03;;;;;;;;;;5128763;27;20961;-72
2022/04/10 04:15:45;;;;;;;4.30;3.43;;;;;;;;;;5127501;27;20448;-72
2022/04/10 04:18:12;;;;;;;6.53;3.57;;;;;;;;;;5132680;27;20843;-72
2022/04/10 04:20:39;;;;;;;5.83;3.93;;;;;;;;;;5131703;27;20965;-73
2022/04/10 04:23:07;;;;;;;11.47;4.30;;;;;;;;;;5131443;27;20541;-72
2022/04/10 04:25:34;;;;;;;5.63;4.57;;;;;;;;;;5127042;27;20444;-73
2022/04/10 04:28:01;;;;;;;7.30;3.80;;;;;;;;;;5133005;27;20562;-73
2022/04/10 04:30:28;;;;;;;5.00;3.47;;;;;;;;;;5126966;27;20522;-72
2022/04/10 04:32:57;;;;;;;5.23;3.40;;;;;;;;;;5124912;27;20450;-72
2022/04/10 04:35:24;;;;;;;5.20;4.10;;;;;;;;;;5115155;27;20871;-72
2022/04/10 04:37:51;;;;;;;5.10;3.87;;;;;;;;;;5117786;27;20574;-72
2022/04/10 04:40:18;;;;;;;3.53;3.23;;;;;;;;;;5117884;27;20475;-72
2022/04/10 04:42:45;;;;;;;4.90;3.40;;;;;;;;;;5125498;27;20457;-73
2022/04/10 04:45:13;;;;;;;6.23;3.73;;;;;;;;;;5126848;27;20470;-72
2022/04/10 04:47:40;;;;;;;3.93;2.93;;;;;;;;;;5129271;27;20537;-72
2022/04/10 04:50:09;;;;;;;5.00;3.33;;;;;;;;;;5119561;27;20579;-72
2022/04/10 04:52:36;;;;;;;3.33;3.03;;;;;;;;;;5122018;27;20878;-72
2022/04/10 04:55:03;;;;;;;4.50;4.10;;;;;;;;;;5127832;27;20981;-74
2022/04/10 04:57:31;;;;;;;4.43;3.97;;;;;;;;;;5131474;27;20514;-72
2022/04/10 04:59:58;;;;;;;6.03;4.30;;;;;;;;;;5125887;27;20530;-72
2022/04/10 05:02:25;;;;;;;8.40;4.17;;;;;;;;;;5126132;27;20460;-72
2022/04/10 05:04:53;;;;;;;4.20;3.80;;;;;;;;;;5122569;27;20532;-72
2022/04/10 05:07:22;;;;;;;7.10;4.00;;;;;;;;;;5125653;27;20463;-71
2022/04/10 05:09:49;;;;;;;5.60;3.97;;;;;;;;;;5117115;27;21032;-72
2022/04/10 05:12:16;;;;;;;4.30;3.20;;;;;;;;;;5123984;27;20443;-72
2022/04/10 05:14:45;;;;;;;4.97;4.47;;;;;;;;;;5131547;27;20819;-72
2022/04/10 05:17:13;;;;;;;5.97;4.27;;;;;;;;;;5130885;27;20877;-72
2022/04/10 05:19:40;;;;;;;4.33;3.93;;;;;;;;;;5125067;27;20449;-71
2022/04/10 05:22:07;;;;;;;5.77;3.83;;;;;;;;;;5115906;27;20449;-72
2022/04/10 05:24:35;;;;;;;4.53;3.43;;;;;;;;;;5130321;27;20465;-73
2022/04/10 05:27:03;;;;;;;8.13;4.17;;;;;;;;;;5131910;27;20537;-73
2022/04/10 05:29:30;;;;;;;6.40;4.43;;;;;;;;;;5121134;27;20486;-72
2022/04/10 05:31:57;;;;;;;4.47;3.77;;;;;;;;;;5126616;27;20939;-73
2022/04/10 05:34:24;;;;;;;6.13;3.57;;;;;;;;;;5127513;27;20446;-72
2022/04/10 05:36:52;;;;;;;3.57;3.27;;;;;;;;;;5128170;27;20474;-70
2022/04/10 05:39:19;;;;;;;4.30;3.47;;;;;;;;;;5118435;27;20478;-71
2022/04/10 05:41:48;;;;;;;4.17;3.63;;;;;;;;;;5119024;27;20527;-72
2022/04/10 05:44:16;;;;;;;4.90;3.30;;;;;;;;;;5127217;27;20967;-72
2022/04/10 05:46:43;;;;;;;4.27;3.80;;;;;;;;;;5131142;28;20460;-71
2022/04/10 05:49:10;;;;;;;5.00;4.60;;;;;;;;;;5130455;27;20446;-71
2022/04/10 05:51:37;;;;;;;4.13;3.73;;;;;;;;;;5121862;28;20529;-73
2022/04/10 05:54:04;;;;;;;3.73;3.30;;;;;;;;;;5130859;28;20884;-70
2022/04/10 05:56:31;;;;;;;4.83;2.93;;;;;;;;;;5126775;27;20440;-72
2022/04/10 05:59:00;;;;;;;4.03;3.63;;;;;;;;;;5123404;28;20442;-71
2022/04/10 06:01:27;;;;;;;4.80;3.87;;;;;;;;;;5114210;27;20457;-72
2022/04/10 06:03:54;;;;;;;5.93;3.30;;;;;;;;;;5125347;28;20446;-73
2022/04/10 06:06:22;;;;;;;3.43;3.13;;;;;;;;;;5127262;27;20441;-74
2022/04/10 06:08:49;;;;;;;7.57;3.90;;;;;;;;;;5127425;27;20499;-72
2022/04/10 06:11:16;;;;;;;6.13;3.10;;;;;;;;;;5112382;28;20469;-72
2022/04/10 06:13:43;;;;;;;4.73;2.87;;;;;;;;;;5126406;28;20474;-72
2022/04/10 06:16:12;;;;;;;4.10;3.70;;;;;;;;;;5130957;27;20963;-71
2022/04/10 06:18:39;;;;;;;5.10;3.10;;;;;;;;;;5131679;27;21101;-72
2022/04/10 06:21:06;;;;;;;5.07;4.10;;;;;;;;;;5131694;27;20506;-71
2022/04/10 06:23:33;;;;;;;4.07;3.70;;;;;;;;;;5137105;27;20498;-73
2022/04/10 06:26:00;;;;;;;4.53;4.10;;;;;;;;;;5139881;27;20477;-72
2022/04/10 06:28:27;;;;;;;3.90;2.80;;;;;;;;;;5134838;27;20542;-74
2022/04/10 06:30:55;;;;;;;3.60;3.03;;;;;;;;;;5131213;27;20454;-73
2022/04/10 06:33:23;;;;;;;3.33;3.00;;;;;;;;;;5132592;27;20457;-72
2022/04/10 06:35:50;;;;;;;6.70;3.90;;;;;;;;;;5134610;27;20491;-72
2022/04/10 06:38:17;;;;;;;6.90;4.07;;;;;;;;;;5124192;27;20493;-72
2022/04/10 06:40:47;;;;;;;5.33;3.77;;;;;;;;;;5129627;27;20453;-74
2022/04/10 06:43:14;;;;;;;4.67;3.43;;;;;;;;;;5124183;27;20471;-73
2022/04/10 06:45:41;;;;;;;3.47;3.17;;;;;;;;;;5118900;27;20457;-73
2022/04/10 06:48:09;;;;;;;7.70;3.50;;;;;;;;;;5119231;27;20488;-72
2022/04/10 06:50:37;;;;;;;9.60;5.83;;;;;;;;;;5123519;27;20479;-71
2022/04/10 06:53:04;;;;;;;7.10;3.30;;;;;;;;;;5132419;27;20549;-71
2022/04/10 06:55:32;;;;;;;5.70;3.00;;;;;;;;;;5123952;27;20443;-71
2022/04/10 06:57:59;;;;;;;5.30;3.20;;;;;;;;;;5129433;27;20477;-72
2022/04/10 07:00:27;;;;;;;4.37;3.40;;;;;;;;;;5125667;27;20458;-72
2022/04/10 07:02:54;;;;;;;5.33;3.00;;;;;;;;;;5130312;27;21262;-74
2022/04/10 07:05:21;;;;;;;5.60;3.17;;;;;;;;;;5118393;27;20443;-70
2022/04/10 07:07:49;;;;;;;3.60;3.27;;;;;;;;;;5129364;27;20482;-69
2022/04/10 07:10:16;;;;;;;3.37;3.07;;;;;;;;;;5133340;27;20816;-70
2022/04/10 07:12:44;;;;;;;4.13;3.03;;;;;;;;;;5129596;27;20455;-72
2022/04/10 07:15:11;;;;;;;3.57;2.80;;;;;;;;;;5127761;27;20530;-72
2022/04/10 07:17:38;;;;;;;4.03;3.13;;;;;;;;;;5117138;27;21008;-72
2022/04/10 07:20:06;;;;;;;3.30;2.63;;;;;;;;;;5133802;27;20439;-72
2022/04/10 07:25:20;;;;;;;3.93;3.20;;;;;;;;;;5126251;27;20856;-73
2022/04/10 07:27:47;;;;;;;3.80;3.37;;;;;;;;;;5122542;27;20462;-72
2022/04/10 07:30:14;;;;;;;5.20;3.50;;;;;;;;;;5129739;27;20447;-72
2022/04/10 07:32:41;;;;;;;5.57;4.20;;;;;;;;;;5133010;27;20534;-70
2022/04/10 07:35:09;;;;;;;5.43;3.50;;;;;;;;;;5128561;27;20550;-70
2022/04/10 07:37:36;;;;;;;5.87;3.20;;;;;;;;;;5120495;27;20913;-72
2022/04/10 07:40:03;;;;;;;4.63;3.00;;;;;;;;;;5125359;27;20481;-72
2022/04/10 07:42:31;;;;;;;6.03;3.00;;;;;;;;;;5131776;27;20805;-72
2022/04/10 07:44:59;;;;;;;4.43;3.10;;;;;;;;;;5120209;27;20827;-71
2022/04/10 07:47:25;;;;;;;3.43;3.00;;;;;;;;;;5123744;27;20924;-72
2022/04/10 07:49:53;;;;;;;5.97;3.30;;;;;;;;;;5115698;27;20443;-70
2022/04/10 07:52:20;;;;;;;5.90;3.57;;;;;;;;;;5122047;27;20446;-67
2022/04/10 07:54:47;;;;;;;4.13;3.60;;;;;;;;;;5125797;27;20541;-68
2022/04/10 07:57:14;;;;;;;6.10;3.53;;;;;;;;;;5119961;27;20477;-69
2022/04/10 07:59:43;;;;;;;4.90;3.63;;;;;;;;;;5115848;27;20447;-68
2022/04/10 08:02:10;;;;;;;3.77;2.97;;;;;;;;;;5128971;27;20470;-68
2022/04/10 08:04:38;;;;;;;3.90;3.40;;;;;;;;;;5100891;27;20531;-68
2022/04/10 08:07:05;;;;;;;11.00;3.90;;;;;;;;;;5108479;27;20471;-68
2022/04/10 08:09:33;;;;;;;3.97;3.10;;;;;;;;;;5117456;27;20443;-67
2022/04/10 08:12:00;;;;;;;4.47;3.40;;;;;;;;;;5106212;27;20448;-67
2022/04/10 08:14:27;;;;;;;5.43;3.40;;;;;;;;;;5110459;27;20439;-67
2022/04/10 08:16:56;;;;;;;4.63;3.47;;;;;;;;;;5112866;27;20451;-68
2022/04/10 08:19:23;;;;;;;5.20;3.27;;;;;;;;;;5109136;27;20478;-67
2022/04/10 08:21:50;;;;;;;3.97;3.60;;;;;;;;;;5119856;27;20487;-72
2022/04/10 08:24:18;;;;;;;5.83;3.47;;;;;;;;;;5126421;27;20491;-69
2022/04/10 08:26:45;;;;;;;5.57;3.70;;;;;;;;;;5131787;27;21022;-70
2022/04/10 08:29:12;;;;;;;3.97;3.13;;;;;;;;;;5131462;27;20446;-71
2022/04/10 08:31:39;;;;;;;4.10;3.07;;;;;;;;;;5132424;27;20457;-72
2022/04/10 08:34:08;;;;;;;4.07;3.70;;;;;;;;;;5123106;27;20458;-72
2022/04/10 08:36:35;;;;;;;3.17;2.80;;;;;;;;;;5125696;27;20460;-71
2022/04/10 08:39:02;;;;;;;3.60;2.50;;;;;;;;;;5122691;27;20525;-71
2022/04/10 08:41:32;;;;;;;5.20;3.13;;;;;;;;;;5121227;27;20534;-70
2022/04/10 08:44:02;;;;;;;4.80;3.07;;;;;;;;;;5124571;27;20950;-70
2022/04/10 08:46:29;;;;;;;4.07;3.00;;;;;;;;;;5124271;27;20481;-69
2022/04/10 08:48:57;;;;;;;5.17;2.80;;;;;;;;;;5111513;27;20815;-69
2022/04/10 08:51:26;;;;;;;4.03;2.70;;;;;;;;;;5122326;27;20446;-73
2022/04/10 08:53:54;;;;;;;4.47;2.60;;;;;;;;;;5120917;27;20982;-72
2022/04/10 08:56:22;;;;;;;5.20;3.70;;;;;;;;;;5130265;27;20970;-71
2022/04/10 08:58:49;;;;;;;3.57;2.70;;;;;;;;;;5131166;27;20485;-71
2022/04/10 09:01:18;;;;;;;4.10;3.30;;;;;;;;;;5126275;27;20479;-72
2022/04/10 09:03:46;;;;;;;4.20;2.97;;;;;;;;;;5117784;27;20457;-71
2022/04/10 09:06:13;;;;;;;3.37;3.00;;;;;;;;;;5122316;27;20444;-72
2022/04/10 09:08:43;;;;;;;7.23;2.87;;;;;;;;;;5123794;27;20517;-73
2022/04/10 09:11:11;;;;;;;4.53;3.30;;;;;;;;;;5126901;27;20450;-70
2022/04/10 09:13:39;;;;;;;5.80;3.30;;;;;;;;;;5128939;27;20450;-70
2022/04/10 09:16:08;;;;;;;5.00;3.40;;;;;;;;;;5126231;27;20939;-70
2022/04/10 09:18:46;;;;;;;7.00;3.13;;;;;;;;;;5127154;27;20480;-71
2022/04/10 09:21:14;;;;;;;4.17;3.07;;;;;;;;;;5116130;27;20438;-70
2022/04/10 09:23:45;;;;;;;4.97;3.30;;;;;;;;;;5123928;27;20467;-71
2022/04/10 09:26:13;;;;;;;5.10;3.30;;;;;;;;;;5119813;27;20798;-70
2022/04/10 09:28:45;;;;;;;4.57;2.97;;;;;;;;;;5128593;27;20481;-69
2022/04/10 09:31:28;;;;;;;4.20;2.70;;;;;;;;;;5128850;27;20466;-72
2022/04/10 09:33:56;;;;;;;5.60;3.53;;;;;;;;;;5117800;27;20507;-72
2022/04/10 09:36:40;;;;;;;3.50;2.40;;;;;;;;;;5124075;27;20453;-71
2022/04/10 09:39:09;;;;;;;3.43;2.60;;;;;;;;;;5111374;27;20550;-70
2022/04/10 09:41:37;;;;;;;6.30;3.80;;;;;;;;;;5131018;27;20448;-71
2022/04/10 09:44:16;;;;;;;4.13;2.73;;;;;;;;;;5131293;27;20528;-69
2022/04/10 09:46:44;;;;;;;4.93;3.00;;;;;;;;;;5131803;27;20458;-70
2022/04/10 09:49:15;;;;;;;4.67;3.23;;;;;;;;;;5130650;27;20522;-70
2022/04/10 09:51:59;;;;;;;4.40;2.73;;;;;;;;;;5131342;27;20503;-72
2022/04/10 09:54:33;;;;;;;5.10;2.77;;;;;;;;;;5130881;27;20455;-70
2022/04/10 09:57:02;;;;;;;4.07;2.13;;;;;;;;;;5131849;27;20438;-70
2022/04/10 09:59:32;;;;;;;3.97;2.43;;;;;;;;;;5135975;27;20482;-71
2022/04/10 10:01:59;;;;;;;6.20;2.97;;;;;;;;;;5136025;27;20487;-73
2022/04/10 10:04:27;;;;;;;5.10;3.90;;;;;;;;;;5127187;27;20474;-71
2022/04/10 10:06:54;;;;;;;5.30;2.70;;;;;;;;;;5136054;27;20552;-72
2022/04/10 10:09:22;;;;;;;4.23;2.77;;;;;;;;;;5135431;27;20537;-72
2022/04/10 10:11:51;;;;;;;3.53;2.63;;;;;;;;;;5135445;27;20545;-71
2022/04/10 10:14:18;;;;;;;4.23;2.53;;;;;;;;;;5134962;27;20453;-70
2022/04/10 10:16:46;;;;;;;3.40;2.40;;;;;;;;;;5135601;27;20478;-71
2022/04/10 10:19:14;;;;;;;4.03;2.60;;;;;;;;;;5134363;27;20484;-70
2022/04/10 10:21:41;;;;;;;7.57;2.67;;;;;;;;;;5135108;27;20446;-71
2022/04/10 10:24:09;;;;;;;3.90;2.30;;;;;;;;;;5134799;27;20485;-70
2022/04/10 10:26:42;;;;;;;4.23;2.50;;;;;;;;;;5135217;27;20930;-73
2022/04/10 10:29:21;;;;;;;3.67;2.60;;;;;;;;;;5134638;27;20937;-70
2022/04/10 10:31:54;;;;;;;2.70;2.27;;;;;;;;;;5134592;27;20450;-70
2022/04/10 10:34:23;;;;;;;4.83;2.53;;;;;;;;;;5133723;27;20434;-70
2022/04/10 10:36:51;;;;;;;3.50;2.70;;;;;;;;;;5130107;27;20447;-70
2022/04/10 10:39:18;;;;;;;4.40;2.77;;;;;;;;;;5125740;27;20875;-70
2022/04/10 10:41:51;;;;;;;3.77;2.53;;;;;;;;;;5134688;27;20474;-71
2022/04/10 10:44:40;;;;;;;4.73;3.10;;;;;;;;;;5134400;27;20483;-70
2022/04/10 10:47:16;;;;;;;5.13;2.90;;;;;;;;;;5134639;27;20439;-70
2022/04/10 10:49:45;;;;;;;3.70;2.97;;;;;;;;;;5134561;27;20446;-71
2022/04/10 10:52:13;;;;;;;5.23;3.33;;;;;;;;;;5133757;27;20446;-71
2022/04/10 10:54:44;;;;;;;3.90;2.77;;;;;;;;;;5134712;27;20774;-70
2022/04/10 10:57:39;;;;;;;3.73;3.13;;;;;;;;;;5134427;27;20434;-70
2022/04/10 11:00:10;;;;;;;4.37;3.67;;;;;;;;;;5098037;27;20478;-71
2022/04/10 11:02:38;;;;;;;3.33;3.03;;;;;;;;;;5134395;27;20533;-71
2022/04/10 11:05:09;;;;;;;4.20;3.80;;;;;;;;;;5126574;27;20529;-70
2022/04/10 11:07:39;;;;;;;5.03;3.73;;;;;;;;;;5134552;27;20499;-70
2022/04/10 11:10:08;;;;;;;5.90;3.10;;;;;;;;;;5132949;27;20443;-70
2022/04/10 11:12:37;;;;;;;4.67;2.80;;;;;;;;;;5133707;27;20449;-71
2022/04/10 11:15:05;;;;;;;4.53;3.00;;;;;;;;;;5133737;27;20938;-70
2022/04/10 11:17:34;;;;;;;3.60;2.50;;;;;;;;;;5134270;27;20456;-71
2022/04/10 11:20:03;;;;;;;3.97;3.00;;;;;;;;;;5134581;27;20478;-71
2022/04/10 11:22:34;;;;;;;2.53;2.23;;;;;;;;;;5133945;27;20455;-70
2022/04/10 11:25:02;;;;;;;3.27;2.90;;;;;;;;;;5134299;27;20498;-71
2022/04/10 11:27:44;;;;;;;3.47;3.17;;;;;;;;;;5134581;27;20447;-72
2022/04/10 11:30:13;;;;;;;2.93;2.33;;;;;;;;;;5126588;27;20450;-73
2022/04/10 11:32:49;;;;;;;4.27;2.50;;;;;;;;;;5130938;27;20819;-71
2022/04/10 11:35:21;;;;;;;3.50;2.80;;;;;;;;;;5131048;27;20454;-72
2022/04/10 11:37:50;;;;;;;4.90;3.30;;;;;;;;;;5113012;27;20448;-73
2022/04/10 11:40:19;;;;;;;2.80;2.60;;;;;;;;;;5131608;27;20488;-71
2022/04/10 11:42:47;;;;;;;7.07;3.00;;;;;;;;;;5122988;27;20455;-72
2022/04/10 11:45:15;;;;;;;7.00;3.23;;;;;;;;;;5116989;27;20532;-71
2022/04/10 11:47:42;;;;;;;6.27;3.17;;;;;;;;;;5116855;27;20470;-71
2022/04/10 11:50:13;;;;;;;4.57;2.80;;;;;;;;;;5129615;27;20543;-71
2022/04/10 11:52:41;;;;;;;5.27;3.57;;;;;;;;;;5125805;27;20443;-70
2022/04/10 11:55:08;;;;;;;3.10;2.80;;;;;;;;;;5119208;27;20536;-70
2022/04/10 11:57:38;;;;;;;6.23;3.47;;;;;;;;;;5126403;27;20482;-70
2022/04/10 12:00:09;;;;;;;3.53;3.20;;;;;;;;;;5128576;27;20481;-70
2022/04/10 12:02:37;;;;;;;3.67;2.90;;;;;;;;;;5126507;27;20436;-72
2022/04/10 12:05:05;;;;;;;3.70;3.17;;;;;;;;;;5120696;27;20455;-71
2022/04/10 12:07:34;;;;;;;3.03;2.80;;;;;;;;;;5130978;27;20450;-70
2022/04/10 12:10:01;;;;;;;4.43;3.30;;;;;;;;;;5131044;27;20450;-71
2022/04/10 12:12:38;;;;;;;4.20;2.80;;;;;;;;;;5129711;27;20537;-70
2022/04/10 12:15:16;;;;;;;4.73;3.00;;;;;;;;;;5130496;27;20535;-70
2022/04/10 12:17:43;;;;;;;7.73;4.00;;;;;;;;;;5130527;27;20438;-70
2022/04/10 12:20:11;;;;;;;2.90;2.70;;;;;;;;;;5129232;27;20489;-70
2022/04/10 12:22:39;;;;;;;4.13;2.93;;;;;;;;;;5129608;27;20504;-70
2022/04/10 12:25:07;;;;;;;3.80;3.07;;;;;;;;;;5129741;27;20531;-70
2022/04/10 12:27:35;;;;;;;5.00;2.47;;;;;;;;;;5130571;27;20443;-71
2022/04/10 12:30:07;;;;;;;2.93;2.10;;;;;;;;;;5130090;27;20537;-71
2022/04/10 12:32:34;;;;;;;5.13;3.30;;;;;;;;;;5122702;27;20545;-72
2022/04/10 12:35:07;;;;;;;4.40;2.43;;;;;;;;;;5114103;27;20501;-72
2022/04/10 12:37:34;;;;;;;3.93;2.40;;;;;;;;;;5118694;27;20538;-71
2022/04/10 12:40:04;;;;;;;4.50;2.50;;;;;;;;;;5127398;27;20601;-72
2022/04/10 12:42:38;;;;;;;4.90;2.90;;;;;;;;;;5129507;27;20527;-71
2022/04/10 12:45:07;;;;;;;3.23;2.93;;;;;;;;;;5125309;27;20501;-71
2022/04/10 12:47:45;;;;;;;4.20;3.00;;;;;;;;;;5122572;27;20806;-71
2022/04/10 12:50:13;;;;;;;5.43;2.73;;;;;;;;;;5124452;27;20443;-72
2022/04/10 12:52:41;;;;;;;3.50;3.20;;;;;;;;;;5123687;27;20816;-71
2022/04/10 12:55:20;;;;;;;5.27;3.30;;;;;;;;;;5128867;27;20507;-71
2022/04/10 12:57:54;;;;;;;4.50;2.90;;;;;;;;;;5130055;27;20454;-72
2022/04/10 13:00:29;;;;;;;3.60;2.57;;;;;;;;;;5117635;27;20577;-73
2022/04/10 13:02:56;;;;;;;5.20;2.60;;;;;;;;;;5122733;27;20440;-73
2022/04/10 13:05:24;;;;;;;2.93;2.37;;;;;;;;;;5112685;27;20455;-71
2022/04/10 13:07:55;;;;;;;3.47;2.63;;;;;;;;;;5119196;27;20476;-71
2022/04/10 13:10:24;;;;;;;4.00;2.80;;;;;;;;;;5128161;27;20802;-71
2022/04/10 13:12:51;;;;;;;4.43;2.90;;;;;;;;;;5104728;27;20507;-72
2022/04/10 13:15:31;;;;;;;4.57;2.10;;;;;;;;;;5132061;27;20506;-72
2022/04/10 13:17:59;;;;;;;5.07;2.40;;;;;;;;;;5125621;27;20441;-71
2022/04/10 13:20:27;;;;;;;8.77;3.33;;;;;;;;;;5126098;27;20482;-72
2022/04/10 13:22:54;;;;;;;2.80;2.60;;;;;;;;;;5116048;27;20794;-72
2022/04/10 13:25:21;;;;;;;6.57;2.90;;;;;;;;;;5117236;27;20438;-71
2022/04/10 13:27:52;;;;;;;3.20;2.40;;;;;;;;;;5121939;27;20436;-70
2022/04/10 13:30:20;;;;;;;3.03;2.53;;;;;;;;;;5115106;27;20479;-71
2022/04/10 13:32:47;;;;;;;3.60;2.63;;;;;;;;;;5120102;27;20892;-72
2022/04/10 13:35:15;;;;;;;5.87;3.00;;;;;;;;;;5126181;27;20921;-73
2022/04/10 13:37:42;;;;;;;5.57;2.43;;;;;;;;;;5117155;27;20502;-72
2022/04/10 13:40:10;;;;;;;3.20;2.87;;;;;;;;;;5121700;27;20487;-71
2022/04/10 13:42:37;;;;;;;5.10;3.40;;;;;;;;;;5118598;27;20517;-72
2022/04/10 13:45:06;;;;;;;3.67;2.73;;;;;;;;;;5127988;27;20464;-71
2022/04/10 13:47:33;;;;;;;3.07;2.73;;;;;;;;;;5118471;27;20483;-70
2022/04/10 13:50:01;;;;;;;3.67;2.90;;;;;;;;;;5116566;27;20542;-72
2022/04/10 13:52:28;;;;;;;2.93;2.63;;;;;;;;;;5115072;28;20518;-69
2022/04/10 13:54:55;;;;;;;4.83;2.90;;;;;;;;;;5124911;27;20526;-71
2022/04/10 13:57:22;;;;;;;3.93;3.10;;;;;;;;;;5122779;28;20450;-71
2022/04/10 13:59:49;;;;;;;4.20;2.80;;;;;;;;;;5127121;27;20493;-70
2022/04/10 14:02:18;;;;;;;3.53;2.30;;;;;;;;;;5127943;27;20450;-69
2022/04/10 14:04:45;;;;;;;5.10;2.47;;;;;;;;;;5122197;27;20462;-70
2022/04/10 14:07:13;;;;;;;4.00;3.70;;;;;;;;;;5124722;27;20471;-71
2022/04/10 14:09:40;;;;;;;3.37;2.53;;;;;;;;;;5114851;27;20465;-70
2022/04/10 14:12:08;;;;;;;3.17;2.80;;;;;;;;;;5110766;28;20444;-70
2022/04/10 14:14:36;;;;;;;2.97;2.50;;;;;;;;;;5110031;27;20610;-72
2022/04/10 14:17:04;;;;;;;4.27;3.23;;;;;;;;;;5120896;28;20455;-72
2022/04/10 14:19:33;;;;;;;7.40;3.00;;;;;;;;;;5118040;27;20568;-70
2022/04/10 14:22:00;;;;;;;3.60;2.40;;;;;;;;;;5105950;28;20808;-71
2022/04/10 14:24:27;;;;;;;4.57;2.73;;;;;;;;;;5128271;27;21096;-71
2022/04/10 14:26:57;;;;;;;3.67;2.43;;;;;;;;;;5119297;27;20451;-70
2022/04/10 14:29:24;;;;;;;4.40;2.83;;;;;;;;;;5128077;27;20851;-70
2022/04/10 14:31:51;;;;;;;5.93;2.40;;;;;;;;;;5127940;27;20451;-70
2022/04/10 14:34:19;;;;;;;2.60;2.33;;;;;;;;;;5119103;27;20531;-71
2022/04/10 14:36:48;;;;;;;5.10;2.80;;;;;;;;;;5118381;28;20483;-71
2022/04/10 14:39:15;;;;;;;2.30;2.10;;;;;;;;;;5121958;27;20478;-71
2022/04/10 14:41:44;;;;;;;2.57;2.03;;;;;;;;;;5122411;27;20451;-71
2022/04/10 14:44:11;;;;;;;2.27;1.90;;;;;;;;;;5123807;27;20908;-71
2022/04/10 14:46:38;;;;;;;3.47;2.23;;;;;;;;;;5120409;27;20446;-69
2022/04/10 14:49:06;;;;;;;2.53;2.10;;;;;;;;;;5118341;27;20810;-70
2022/04/10 14:51:33;;;;;;;3.33;2.33;;;;;;;;;;5106506;27;20457;-70
2022/04/10 14:54:02;;;;;;;2.80;2.20;;;;;;;;;;5114881;27;20447;-70